Time;durP1;ratioP1;P1;durP2;ratioP2;P2;SDS_P1;SDS_P2;PMS_P1;PMS_P2;Temp;Humidity;BMP_temperature;BMP_pressure;BME280_temperature;BME280_humidity;BME280_pressure;Samples;Min_cycle;Max_cycle;Signal;HPM_P1;HPM_P2
2021/04/15 04:51:12;;;;;;;36.15;22.30;;;;;;;5.98;100.00;98343.58;1729450;78;21228;-55
2021/04/15 04:53:43;;;;;;;40.73;24.07;;;;;;;5.93;100.00;98323.72;1711996;83;21186;-56
2021/04/15 04:56:26;;;;;;;37.20;21.35;;;;;;;5.93;100.00;98325.83;1719862;82;21168;-57
2021/04/15 04:58:59;;;;;;;33.88;21.23;;;;;;;5.98;100.00;98311.69;1728416;82;21116;-53
2021/04/15 05:01:28;;;;;;;34.43;20.32;;;;;;;6.02;100.00;98320.78;1728416;82;21163;-55
2021/04/15 05:04:01;;;;;;;34.33;19.50;;;;;;;6.07;100.00;98330.14;1722504;81;21285;-54
2021/04/15 05:06:44;;;;;;;35.85;19.55;;;;;;;6.10;100.00;98319.81;1727160;82;21160;-55
2021/04/15 05:09:27;;;;;;;36.38;19.15;;;;;;;6.12;100.00;98330.38;1724974;82;21348;-55
2021/04/15 05:11:57;;;;;;;41.13;22.52;;;;;;;6.08;100.00;98309.55;1676055;82;21193;-55
2021/04/15 05:14:28;;;;;;;36.23;19.80;;;;;;;6.08;100.00;98311.35;1708791;83;21191;-55
2021/04/15 05:17:11;;;;;;;38.40;18.75;;;;;;;6.11;100.00;98333.20;1688476;84;21579;-57
2021/04/15 05:19:41;;;;;;;36.42;18.90;;;;;;;6.12;100.00;98333.50;1710607;82;22234;-56
2021/04/15 05:22:10;;;;;;;34.48;18.90;;;;;;;6.09;100.00;98314.27;1684765;84;21554;-55
2021/04/15 05:24:48;;;;;;;33.35;19.92;;;;;;;6.12;100.00;98331.69;1640772;87;21190;-57
2021/04/15 05:27:19;;;;;;;35.15;20.40;;;;;;;6.17;100.00;98325.08;1648855;85;21191;-57
2021/04/15 05:29:50;;;;;;;35.70;21.75;;;;;;;6.21;100.00;98332.36;1648149;85;21187;-59
2021/04/15 05:32:22;;;;;;;36.20;21.70;;;;;;;6.27;100.00;98337.33;1704109;83;21175;-54
2021/04/15 05:34:58;;;;;;;42.88;22.20;;;;;;;6.36;100.00;98333.53;1670005;82;21317;-55
2021/04/15 05:37:29;;;;;;;35.65;23.85;;;;;;;6.42;100.00;98327.52;1694445;84;21605;-59
2021/04/15 05:39:59;;;;;;;37.33;23.50;;;;;;;6.51;100.00;98321.14;1654785;85;21186;-58
2021/04/15 05:42:39;;;;;;;38.63;24.02;;;;;;;6.56;100.00;98318.75;1645380;85;21143;-57
2021/04/15 05:45:26;;;;;;;36.65;24.23;;;;;;;6.62;100.00;98327.63;1653434;85;21202;-57
2021/04/15 05:48:06;;;;;;;36.03;24.32;;;;;;;6.63;100.00;98326.63;1616009;87;21634;-58
2021/04/15 05:50:50;;;;;;;34.65;20.37;;;;;;;6.63;100.00;98327.94;1685232;83;21177;-57
2021/04/15 05:53:34;;;;;;;34.53;20.12;;;;;;;6.60;100.00;98324.41;1711887;82;21204;-58
2021/04/15 05:56:11;;;;;;;33.02;19.87;;;;;;;6.59;100.00;98326.70;1713858;82;21129;-59
2021/04/15 05:59:01;;;;;;;30.45;19.55;;;;;;;6.60;100.00;98330.96;1711255;83;21164;-61
2021/04/15 06:02:04;;;;;;;32.88;20.57;;;;;;;6.59;100.00;98312.30;1711229;84;21600;-57
2021/04/15 06:04:43;;;;;;;34.27;20.85;;;;;;;6.60;100.00;98317.36;1711252;84;21152;-56
2021/04/15 06:07:25;;;;;;;34.95;21.48;;;;;;;6.65;100.00;98318.06;1691830;84;21746;-57
2021/04/15 06:09:55;;;;;;;31.85;19.52;;;;;;;6.62;100.00;98321.89;1710885;84;21318;-56
2021/04/15 06:13:03;;;;;;;31.87;19.70;;;;;;;6.64;100.00;98313.33;1711144;83;21180;-60
2021/04/15 06:15:40;;;;;;;30.97;19.02;;;;;;;6.68;100.00;98324.73;1703264;82;21585;-54
2021/04/15 06:18:27;;;;;;;30.02;18.27;;;;;;;6.74;100.00;98321.33;1698396;82;21211;-57
2021/04/15 06:21:11;;;;;;;31.77;17.45;;;;;;;6.83;100.00;98314.42;1705135;84;21216;-58
2021/04/15 06:23:52;;;;;;;28.73;17.45;;;;;;;6.89;100.00;98303.16;1683349;85;21223;-57
2021/04/15 06:26:47;;;;;;;31.93;18.20;;;;;;;6.93;100.00;98299.11;1701651;82;21721;-56
2021/04/15 06:29:48;;;;;;;31.55;18.45;;;;;;;7.01;100.00;98308.63;1716561;83;21281;-55
2021/04/15 06:32:41;;;;;;;28.62;17.75;;;;;;;7.10;100.00;98315.28;1691029;83;21156;-62
2021/04/15 06:35:22;;;;;;;30.50;17.52;;;;;;;7.18;100.00;98314.31;1698749;83;21142;-59
2021/04/15 06:38:21;;;;;;;29.45;18.30;;;;;;;7.19;100.00;98298.38;1690171;83;21321;-59
2021/04/15 06:40:59;;;;;;;32.78;17.77;;;;;;;7.18;100.00;98308.56;1655604;86;21176;-60
2021/04/15 06:44:20;;;;;;;31.07;18.65;;;;;;;7.22;100.00;98306.84;1675172;85;21142;-64
2021/04/15 06:47:07;;;;;;;29.02;18.37;;;;;;;7.30;100.00;98304.84;1639562;87;21197;-56
2021/04/15 06:49:57;;;;;;;30.77;20.20;;;;;;;7.39;100.00;98310.19;1650763;84;21340;-57
2021/04/15 06:52:34;;;;;;;30.80;18.60;;;;;;;7.43;100.00;98310.61;1672465;84;21210;-60
2021/04/15 06:55:12;;;;;;;30.35;18.50;;;;;;;7.53;100.00;98318.89;1665079;84;21206;-58
2021/04/15 06:58:05;;;;;;;30.20;18.45;;;;;;;7.59;100.00;98316.77;1680307;84;21311;-59
2021/04/15 07:01:07;;;;;;;28.52;19.23;;;;;;;7.65;100.00;98310.72;1657552;84;21157;-57
2021/04/15 07:03:39;;;;;;;;;;;;;;;7.73;100.00;98306.56;1689662;84;21190;-52
2021/04/15 07:06:36;;;;;;;30.62;19.82;;;;;;;7.82;100.00;98309.80;1697541;84;20188;-57
2021/04/15 07:10:01;;;;;;;28.83;18.10;;;;;;;7.92;100.00;98308.09;1671137;84;21217;-57
2021/04/15 07:13:10;;;;;;;30.15;19.05;;;;;;;7.93;100.00;98315.75;1696188;84;21149;-55
2021/04/15 07:15:50;;;;;;;29.40;19.00;;;;;;;7.90;100.00;98320.59;1671283;85;21176;-51
2021/04/15 07:18:58;;;;;;;28.05;17.87;;;;;;;7.86;100.00;98318.89;1699990;84;21306;-53
2021/04/15 07:22:01;;;;;;;28.77;18.60;;;;;;;7.83;100.00;98335.03;1718164;83;21164;-53
2021/04/15 07:24:53;;;;;;;29.37;18.37;;;;;;;7.75;100.00;98327.38;1715865;83;21160;-54
2021/04/15 07:27:53;;;;;;;31.27;20.45;;;;;;;7.79;100.00;98325.14;1819228;77;22794;-54
2021/04/15 07:31:19;;;;;;;28.92;18.62;;;;;;;7.77;100.00;98331.09;1760901;81;21300;-54
2021/04/15 07:34:18;;;;;;;36.20;18.30;;;;;;;7.93;100.00;98326.25;1848056;77;22740;-56
2021/04/15 07:37:43;;;;;;;30.05;18.25;;;;;;;7.94;100.00;98327.05;1753943;79;21177;-53
2021/04/15 07:40:44;;;;;;;32.35;18.70;;;;;;;8.03;100.00;98325.84;1808231;79;21607;-56
2021/04/15 07:43:31;;;;;;;34.73;20.83;;;;;;;8.01;100.00;98337.54;1805651;78;21158;-57
2021/04/15 07:46:50;;;;;;;34.98;20.72;;;;;;;8.08;100.00;98336.52;1780673;79;22909;-58
2021/04/15 07:50:04;;;;;;;33.58;19.90;;;;;;;8.13;100.00;98325.41;1753029;81;21157;-55
2021/04/15 07:53:19;;;;;;;29.40;18.48;;;;;;;8.16;100.00;98329.75;1697255;83;21173;-58
2021/04/15 07:56:52;;;;;;;31.93;19.80;;;;;;;8.07;100.00;98342.78;1701247;83;21284;-56
2021/04/15 07:59:31;;;;;;;27.87;17.50;;;;;;;8.04;100.00;98343.71;1701707;83;21616;-58
2021/04/15 08:02:31;;;;;;;28.70;17.50;;;;;;;8.09;100.00;98330.28;1708207;83;21319;-58
2021/04/15 08:05:36;;;;;;;25.97;17.48;;;;;;;8.22;100.00;98326.81;1686077;83;21149;-57
2021/04/15 08:08:23;;;;;;;26.40;17.27;;;;;;;8.31;100.00;98320.82;1708149;83;21204;-58
2021/04/15 08:11:33;;;;;;;27.77;17.45;;;;;;;8.36;100.00;98331.04;1683611;82;21207;-56
2021/04/15 08:14:15;;;;;;;27.85;18.27;;;;;;;8.34;100.00;98340.13;1715398;83;21189;-55
2021/04/15 08:17:11;;;;;;;29.50;18.48;;;;;;;8.34;100.00;98330.93;1709770;83;21145;-55
2021/04/15 08:20:22;;;;;;;30.45;18.80;;;;;;;8.46;100.00;98333.25;1680048;83;21159;-53
2021/04/15 08:23:39;;;;;;;31.33;18.95;;;;;;;8.53;100.00;98330.09;1707533;82;21161;-53
2021/04/15 08:26:50;;;;;;;31.12;20.68;;;;;;;8.52;100.00;98323.23;1710556;83;21193;-54
2021/04/15 08:29:57;;;;;;;34.03;19.60;;;;;;;8.44;100.00;98338.72;1712147;83;21169;-55
2021/04/15 08:32:33;;;;;;;34.00;20.05;;;;;;;8.39;100.00;98334.58;1724131;83;21561;-55
2021/04/15 08:35:24;;;;;;;32.38;21.52;;;;;;;8.41;100.00;98333.05;1724243;82;21191;-54
2021/04/15 08:38:43;;;;;;;31.60;22.00;;;;;;;8.48;100.00;98339.89;1726315;82;21191;-57
2021/04/15 08:41:36;;;;;;;30.52;21.90;;;;;;;8.54;100.00;98325.64;1727035;83;21330;-59
2021/04/15 08:44:27;;;;;;;27.82;18.90;;;;;;;8.60;100.00;98330.89;1725916;83;22189;-57
2021/04/15 08:47:26;;;;;;;28.57;19.15;;;;;;;8.69;100.00;98336.20;1716509;83;21628;-56
2021/04/15 08:50:21;;;;;;;28.73;18.55;;;;;;;8.74;99.12;98344.78;1715652;83;21227;-56
2021/04/15 08:53:18;;;;;;;26.05;16.62;;;;;;;8.82;99.26;98331.39;1715375;82;21209;-57
2021/04/15 08:56:16;;;;;;;25.37;16.15;;;;;;;8.89;96.99;98338.77;1738514;82;21165;-58
2021/04/15 08:59:22;;;;;;;26.45;17.73;;;;;;;8.90;96.37;98336.94;1709514;82;21299;-54
2021/04/15 09:02:23;;;;;;;31.30;19.32;;;;;;;8.97;95.77;98333.25;1710404;82;21161;-56
2021/04/15 09:05:22;;;;;;;23.32;15.13;;;;;;;9.13;94.56;98332.47;1710187;84;21249;-56
2021/04/15 09:08:10;;;;;;;26.77;16.97;;;;;;;9.37;93.49;98329.59;1766723;79;23017;-58
2021/04/15 09:10:56;;;;;;;25.45;16.77;;;;;;;9.44;92.14;98332.47;1738549;80;21508;-57
2021/04/15 09:13:53;;;;;;;24.85;16.90;;;;;;;9.54;91.96;98324.91;1732483;82;21267;-56
2021/04/15 09:17:04;;;;;;;24.00;16.45;;;;;;;9.72;89.31;98318.09;1723711;83;21166;-56
2021/04/15 09:20:14;;;;;;;26.68;17.48;;;;;;;9.76;88.99;98332.45;1723049;82;21624;-56
2021/04/15 09:23:30;;;;;;;27.42;17.80;;;;;;;9.72;87.30;98334.69;1753006;80;21149;-57
2021/04/15 09:26:32;;;;;;;27.77;17.70;;;;;;;9.68;87.56;98331.37;1756653;82;21326;-57
2021/04/15 09:29:18;;;;;;;26.27;18.00;;;;;;;9.67;87.63;98319.25;1605967;86;21253;-56
2021/04/15 09:31:57;;;;;;;26.70;17.55;;;;;;;9.65;88.56;98319.98;1687169;83;21165;-57
2021/04/15 09:35:05;;;;;;;27.17;18.80;;;;;;;9.68;87.30;98319.54;1706766;80;21751;-55
2021/04/15 09:38:05;;;;;;;26.70;17.60;;;;;;;9.70;87.78;98311.74;1787369;80;21197;-56
2021/04/15 09:40:59;;;;;;;28.07;17.25;;;;;;;9.66;86.80;98301.85;1706035;84;21126;-59
2021/04/15 09:43:48;;;;;;;31.48;20.50;;;;;;;9.66;86.84;98307.11;1698358;84;21310;-55
2021/04/15 09:46:34;;;;;;;26.57;17.35;;;;;;;9.62;87.07;98301.98;1703492;82;21254;-57
2021/04/15 09:49:28;;;;;;;25.65;17.00;;;;;;;9.67;86.92;98313.98;1695056;84;21221;-54
2021/04/15 09:52:19;;;;;;;29.55;19.95;;;;;;;9.64;87.06;98298.12;1699104;84;21121;-55
2021/04/15 09:55:20;;;;;;;28.27;18.82;;;;;;;9.69;86.75;98301.41;1700275;84;21168;-55
2021/04/15 09:58:29;;;;;;;27.02;18.35;;;;;;;9.76;86.74;98308.76;1692082;84;21169;-56
2021/04/15 10:01:11;;;;;;;27.52;17.92;;;;;;;9.92;85.51;98308.22;1645988;87;21251;-55
2021/04/15 10:04:02;;;;;;;26.93;17.70;;;;;;;10.04;84.26;98303.05;1731900;82;21553;-55
2021/04/15 10:06:38;;;;;;;27.45;17.40;;;;;;;10.11;85.03;98311.68;1727455;82;21138;-55
2021/04/15 10:09:27;;;;;;;27.02;16.77;;;;;;;10.26;84.79;98316.61;1740199;82;21617;-53
2021/04/15 10:12:16;;;;;;;27.93;18.87;;;;;;;10.33;83.63;98316.05;1736581;80;21174;-54
2021/04/15 10:15:13;;;;;;;27.70;18.35;;;;;;;10.29;81.78;98317.50;1727286;82;21134;-55
2021/04/15 10:18:08;;;;;;;25.40;18.67;;;;;;;10.21;83.09;98315.14;1730873;82;21174;-55
2021/04/15 10:21:17;;;;;;;32.05;18.95;;;;;;;10.21;83.09;98315.14;1726138;82;21129;-57
2021/04/15 10:24:11;;;;;;;27.50;19.02;;;;;;;10.22;83.82;98306.20;1668437;84;21153;-54
2021/04/15 10:26:54;;;;;;;29.77;18.75;;;;;;;10.20;82.47;98307.72;1647205;87;21192;-57
2021/04/15 10:29:55;;;;;;;27.22;18.92;;;;;;;10.26;82.84;98305.55;1780506;79;23156;-53
2021/04/15 10:32:55;;;;;;;25.43;18.65;;;;;;;10.19;81.58;98306.11;1732173;82;21602;-55
2021/04/15 10:36:08;;;;;;;29.42;19.98;;;;;;;10.14;82.65;98307.28;1779785;80;21162;-55
2021/04/15 10:39:09;;;;;;;27.82;19.95;;;;;;;10.16;82.88;98314.47;1760089;80;21154;-56
2021/04/15 10:42:16;;;;;;;29.55;22.13;;;;;;;10.22;83.10;98304.38;1735685;82;21138;-54
2021/04/15 10:45:18;;;;;;;33.42;21.93;;;;;;;10.25;82.28;98321.59;1726696;80;21283;-55
2021/04/15 10:48:14;;;;;;;29.32;20.08;;;;;;;10.16;81.97;98315.78;1774142;80;21599;-58
2021/04/15 10:51:08;;;;;;;30.92;21.85;;;;;;;10.11;82.23;98307.21;1761740;80;21161;-59
2021/04/15 10:54:02;;;;;;;32.17;22.02;;;;;;;10.05;82.60;98320.45;1756406;82;21201;-57
2021/04/15 10:56:45;;;;;;;28.75;19.35;;;;;;;10.04;82.53;98320.16;1693992;83;21161;-56
2021/04/15 10:59:20;;;;;;;26.80;19.02;;;;;;;10.01;82.91;98320.58;1723444;83;21624;-58
2021/04/15 11:01:52;;;;;;;30.88;21.48;;;;;;;9.95;83.12;98322.25;1694348;85;21348;-57
2021/04/15 11:04:28;;;;;;;30.60;18.85;;;;;;;10.03;83.75;98312.74;1690177;83;21166;-56
2021/04/15 11:07:26;;;;;;;27.27;19.20;;;;;;;10.07;82.43;98315.76;1715067;82;21304;-53
2021/04/15 11:09:58;;;;;;;29.55;19.90;;;;;;;10.06;82.31;98314.16;1718640;83;21165;-52
2021/04/15 11:12:31;;;;;;;30.17;20.48;;;;;;;10.07;81.89;98331.56;1739914;82;21150;-50
2021/04/15 11:15:19;;;;;;;29.23;19.27;;;;;;;9.98;82.33;98315.77;1720033;83;21138;-50
2021/04/15 11:17:49;;;;;;;27.50;18.65;;;;;;;9.97;82.57;98316.76;1693213;84;21129;-56
2021/04/15 11:20:28;;;;;;;29.70;18.52;;;;;;;9.98;81.87;98320.52;1670246;83;21158;-54
2021/04/15 11:23:07;;;;;;;26.33;18.15;;;;;;;9.90;82.92;98319.45;1674884;83;21147;-54
2021/04/15 11:25:46;;;;;;;27.37;18.37;;;;;;;9.92;83.22;98327.13;1697988;83;21167;-55
2021/04/15 11:28:26;;;;;;;26.48;17.20;;;;;;;9.93;83.92;98315.09;1669805;84;21643;-54
2021/04/15 11:31:11;;;;;;;27.52;17.55;;;;;;;9.90;83.98;98319.97;1678185;84;21193;-58
2021/04/15 11:33:55;;;;;;;24.75;16.70;;;;;;;9.91;83.77;98318.94;1648563;84;21222;-53
2021/04/15 11:36:31;;;;;;;27.15;17.92;;;;;;;9.96;82.97;98320.42;1692651;84;21317;-57
2021/04/15 11:39:20;;;;;;;24.32;16.57;;;;;;;9.90;83.12;98313.39;1670876;86;21337;-54
2021/04/15 11:42:06;;;;;;;27.85;17.67;;;;;;;9.81;82.78;98307.09;1667221;85;21518;-56
2021/04/15 11:44:55;;;;;;;27.25;17.98;;;;;;;9.78;83.73;98310.14;1660963;86;21354;-52
2021/04/15 11:47:29;;;;;;;26.73;18.30;;;;;;;9.82;84.17;98317.91;1708808;84;21154;-51
2021/04/15 11:50:21;;;;;;;28.62;19.42;;;;;;;9.80;83.31;98308.09;1702531;84;21165;-57
2021/04/15 11:52:56;;;;;;;28.20;19.52;;;;;;;9.79;82.97;98307.80;1679376;83;21667;-58
2021/04/15 11:55:32;;;;;;;27.10;17.57;;;;;;;9.83;82.72;98305.55;1701144;82;21165;-54
2021/04/15 11:58:05;;;;;;;28.02;17.75;;;;;;;9.85;82.54;98310.88;1695962;84;21336;-52
2021/04/15 12:00:38;;;;;;;27.82;17.67;;;;;;;9.91;83.38;98313.16;1707865;84;21158;-54
2021/04/15 12:03:16;;;;;;;30.88;19.07;;;;;;;9.96;82.57;98312.52;1706642;84;21360;-51
2021/04/15 12:05:47;;;;;;;27.82;18.52;;;;;;;9.93;82.02;98309.83;1703103;84;21204;-58
2021/04/15 12:08:35;;;;;;;28.30;18.48;;;;;;;9.90;82.60;98320.77;1707269;82;21183;-55
2021/04/15 12:11:18;;;;;;;29.63;19.30;;;;;;;9.91;81.03;98314.48;1713864;82;21194;-54
2021/04/15 12:14:05;;;;;;;30.50;20.25;;;;;;;9.91;81.03;98314.48;1720292;82;21139;-55
2021/04/15 12:16:49;;;;;;;33.30;19.85;;;;;;;9.74;82.14;98321.31;1710941;82;21220;-55
2021/04/15 12:20:01;;;;;;;41.33;24.80;;;;;;;9.64;83.52;98318.38;1708574;84;21202;-57
2021/04/15 12:22:40;;;;;;;99.50;21.37;;;;;;;9.64;84.49;98313.11;1737044;82;21301;-58
2021/04/15 12:25:27;;;;;;;54.75;24.92;;;;;;;9.67;88.98;98314.78;1709876;82;21189;-55
2021/04/15 12:28:47;;;;;;;45.70;19.60;;;;;;;10.01;92.19;98302.15;1678418;84;21290;-57
2021/04/15 12:31:31;;;;;;;45.60;24.32;;;;;;;10.46;89.88;98299.28;1662768;86;21180;-59
2021/04/15 12:34:28;;;;;;;37.93;20.62;;;;;;;10.73;83.23;98305.05;1696362;82;21209;-53
2021/04/15 12:37:14;;;;;;;84.13;48.50;;;;;;;10.56;81.31;98306.17;1684410;84;21481;-51
2021/04/15 12:39:52;;;;;;;39.60;23.62;;;;;;;10.40;83.12;98296.22;1711927;84;21194;-53
2021/04/15 12:42:26;;;;;;;30.88;16.32;;;;;;;10.30;80.97;98297.52;1709863;84;21574;-55
2021/04/15 12:45:00;;;;;;;30.62;17.48;;;;;;;10.05;81.48;98289.65;1711991;84;21131;-50
2021/04/15 12:47:33;;;;;;;35.45;21.00;;;;;;;9.80;82.72;98283.59;1711605;84;21206;-52
2021/04/15 12:50:03;;;;;;;33.28;15.70;;;;;;;9.61;83.80;98301.69;1693215;82;21187;-55
2021/04/15 12:52:32;;;;;;;53.73;18.65;;;;;;;9.51;85.50;98304.28;1699332;82;21154;-52
2021/04/15 12:55:02;;;;;;;40.52;19.23;;;;;;;9.41;89.00;98297.39;1712646;84;21173;-51
2021/04/15 12:57:32;;;;;;;40.88;18.60;;;;;;;9.49;90.50;98301.58;1712062;84;21395;-51
2021/04/15 13:00:09;;;;;;;78.37;33.55;;;;;;;9.58;90.39;98296.36;1693571;84;21207;-54
2021/04/15 13:02:38;;;;;;;45.12;23.85;;;;;;;9.82;94.01;98297.37;1713134;84;21578;-51
2021/04/15 13:05:34;;;;;;;28.73;17.15;;;;;;;10.15;92.03;98293.59;1708266;84;21187;-55
2021/04/15 13:08:28;;;;;;;30.10;17.55;;;;;;;10.28;84.33;98285.60;1692304;84;21203;-53
2021/04/15 13:10:58;;;;;;;32.00;19.87;;;;;;;9.88;82.82;98285.97;1698775;82;21597;-54
2021/04/15 13:13:57;;;;;;;41.48;21.65;;;;;;;9.47;84.72;98308.37;1699438;82;21589;-53
2021/04/15 13:16:42;;;;;;;32.15;19.73;;;;;;;9.27;85.77;98299.29;1676617;84;21173;-54
2021/04/15 13:19:25;;;;;;;33.18;18.98;;;;;;;9.17;87.81;98312.09;1691170;84;21176;-50
2021/04/15 13:22:10;;;;;;;58.58;31.97;;;;;;;9.07;87.75;98305.20;1697020;83;21162;-52
2021/04/15 13:25:03;;;;;;;31.25;18.95;;;;;;;8.97;88.69;98303.53;1694255;84;21206;-49
2021/04/15 13:27:45;;;;;;;36.68;19.42;;;;;;;8.85;89.71;98307.84;1684012;84;21220;-49
2021/04/15 13:30:43;;;;;;;33.75;20.32;;;;;;;8.77;91.43;98312.33;1676509;84;21687;-51
2021/04/15 13:33:23;;;;;;;32.83;18.35;;;;;;;8.83;91.28;98305.43;1671143;86;21214;-52
2021/04/15 13:36:03;;;;;;;31.77;19.50;;;;;;;8.80;90.64;98302.41;1676595;84;21194;-55
2021/04/15 13:38:39;;;;;;;68.20;35.93;;;;;;;8.64;90.98;98312.88;1659769;86;21335;-52
2021/04/15 13:41:25;;;;;;;38.78;21.77;;;;;;;8.54;92.39;98317.25;1707584;84;21605;-50
2021/04/15 13:44:09;;;;;;;57.00;33.08;;;;;;;8.58;92.14;98304.52;1700130;82;21158;-49
2021/04/15 13:46:44;;;;;;;33.70;19.30;;;;;;;8.58;92.77;98313.70;1673327;85;21194;-50
2021/04/15 13:49:21;;;;;;;31.27;18.10;;;;;;;8.54;91.85;98309.36;1668567;84;21354;-52
2021/04/15 13:52:07;;;;;;;47.43;25.50;;;;;;;8.46;92.43;98300.41;1709474;84;21150;-54
2021/04/15 13:54:42;;;;;;;71.40;37.45;;;;;;;8.35;92.86;98307.08;1710025;84;21590;-51
2021/04/15 13:57:26;;;;;;;32.15;20.40;;;;;;;8.33;93.17;98306.48;1679358;84;21666;-52
